Latest Coastal Weather Observations for Yarram Airport

IDV60701

Issued at 5:45 pm EDT Wednesday 26 November 2014 (issued every 10 minutes, with the page automatically refreshed every 10 minutes)

About coastal observations | Map of coastal stations | Coastal observations for VIC | Marine services | Other Formats
Station Details ID: 085151 Name: YARRAM AIRPORT Lat: -38.56 Lon: 146.75 Height: 17.9 m
Data from the previous 72 hours. | See also: Recent months at Yarram Airport
Date/Time
EDT
Temp

°C
Wind Pressure Rain
since 9am
mm
Weather Cloud Vis
km
Sea
Height
m
Swell
Dir
 
Speed
knots
Gust
knots
hPa Trend Height
m
Period
s
Dir
26/05:30pm 17.2 WSW 18 24 1020.6 - 0.4 - - - - - - -
26/05:00pm 17.3 WSW 17 23 1020.5 - 0.4 - - - - - - -
26/04:30pm 16.3 WSW 19 24 1020.6 - 0.4 - - - - - - -
26/04:00pm 16.5 SW 18 24 1020.5 - 0.4 - - - - - - -
26/03:42pm 16.2 WSW 16 26 1020.5 - 0.4 - - - - - - -
26/03:30pm 15.7 WSW 17 22 1020.5 - 0.4 - - - - - - -
26/03:00pm 15.1 WSW 15 22 1020.6 - 0.4 Recent precip. - - - - - -
26/02:30pm 14.2 WSW 15 22 1020.6 - 0.4 - - - - - - -
26/02:00pm 14.4 WSW 17 23 1020.3 - 0.0 - - - - - - -
26/01:44pm 15.5 SW 18 30 1020.1 - 0.0 - - - - - - -
26/01:30pm 17.0 W 14 18 1019.8 - 0.0 - - - - - - -
26/01:00pm 16.6 W 14 19 1020.0 - 0.0 - - - - - - -
26/12:30pm 16.7 W 12 15 1020.0 - 0.0 - - - - - - -
26/12:00pm 16.5 W 14 19 1019.9 - 0.0 - - - - - - -
26/11:30am 16.4 WNW 17 23 1019.8 - 0.0 - - - - - - -
26/11:00am 18.4 W 15 22 1019.6 - 0.0 - - - - - - -
26/10:30am 17.2 W 17 24 1019.6 - 0.0 - - - - - - -
26/10:00am 17.4 W 16 23 1019.6 - 0.0 - - - - - - -
26/09:30am 15.6 W 15 19 1019.7 - 0.0 - - - - - - -
26/09:00am 14.9 WNW 13 18 1019.7 - 0.0 - - - - - - -
26/08:30am 14.1 WNW 13 16 1019.6 - 0.0 - - - - - - -
26/08:00am 13.2 W 13 17 1019.6 - 0.0 - - - - - - -
26/07:30am 13.1 W 10 13 1019.3 - 0.0 - - - - - - -
26/07:00am 12.8 WNW 10 14 1019.2 - 0.0 - - - - - - -
26/06:30am 12.4 W 7 10 1019.0 - 0.0 - - - - - - -
26/06:00am 12.0 WNW 6 8 1019.0 - 0.0 - - - - - - -
26/05:30am 11.8 WNW 7 11 1018.8 - 0.0 - - - - - - -
26/05:00am 11.8 WNW 6 7 1018.6 - 0.0 - - - - - - -
26/04:30am 10.7 NW 6 7 1018.6 - 0.0 - - - - - - -
26/04:00am 10.0 CALM 0 0 1018.6 - 0.0 - - - - - - -
26/03:30am 8.8 N 2 3 1018.5 - 0.0 - - - - - - -
26/03:00am 7.8 NNW 5 7 1018.8 - 0.0 - - - - - - -
26/02:30am 8.8 NNW 6 7 1019.0 - 0.0 - - - - - - -
26/02:00am 9.1 NNW 7 8 1019.2 - 0.0 - - - - - - -
26/01:30am 9.6 NNW 7 9 1019.5 - 0.0 - - - - - - -
26/01:00am 7.7 NNE 5 6 1019.8 - 0.0 - - - - - - -
26/12:30am 9.2 NW 4 6 1019.9 - 0.0 - - - - - - -
26/12:00am 10.5 WNW 8 9 1020.1 - 0.0 - - - - - - -
 
Date/Time
EDT
Temp

°C
Wind Pressure Rain
since 9am
mm
Weather Cloud Vis
km
Sea
Height
m
Swell
Dir
 
Speed
knots
Gust
knots
hPa Trend Height
m
Period
s
Dir
25/11:30pm 11.0 W 8 10 1020.2 - 0.0 - - - - - - -
25/11:00pm 11.7 W 9 11 1020.3 - 0.0 - - - - - - -
25/10:30pm 12.2 W 9 14 1020.3 - 0.0 - - - - - - -
25/10:00pm 11.7 W 8 9 1020.4 - 0.0 - - - - - - -
25/09:30pm 11.8 W 7 10 1020.2 - 0.0 - - - - - - -
25/09:00pm 12.8 W 10 12 1019.9 - 0.0 - - - - - - -
25/08:30pm 13.6 W 14 20 1019.7 - 0.0 - - - - - - -
25/08:00pm 13.8 W 12 16 1019.4 - 0.0 - - - - - - -
25/07:30pm 14.9 WSW 16 22 1019.0 - 0.0 - - - - - - -
25/07:00pm 15.5 WSW 16 22 1018.6 - 0.0 - - - - - - -
25/06:30pm 16.3 WSW 17 24 1018.2 - 0.0 - - - - - - -
25/06:00pm 17.0 WSW 18 24 1017.7 - 0.0 - - - - - - -
25/05:30pm 16.9 WSW 19 26 1017.5 - 0.0 - - - - - - -
25/05:00pm 17.5 WSW 19 26 1017.2 - 0.0 - - - - - - -
25/04:30pm 17.6 WSW 19 27 1017.2 - 0.0 - - - - - - -
25/04:00pm 17.8 W 18 27 1017.1 - 0.0 - - - - - - -
25/03:30pm 18.7 W 20 27 1017.2 - 0.0 - - - - - - -
25/03:00pm 14.9 WSW 24 30 1017.4 - 0.0 - - - - - - -
25/02:30pm 19.3 W 20 27 1017.0 - 0.0 - - - - - - -
25/02:11pm 17.6 W 19 29 1017.1 - 0.0 - - - - - - -
25/02:00pm 20.1 W 20 28 1016.9 - 0.0 - - - - - - -
25/01:30pm 19.8 W 23 33 1016.9 - 0.0 - - - - - - -
25/01:02pm 18.6 W 22 32 1016.7 - 0.0 - - - - - - -
25/01:00pm 18.1 W 21 30 1016.6 - 0.0 - - - - - - -
25/12:43pm 18.6 WSW 23 30 1016.5 - 0.0 - - - - - - -
25/12:30pm 17.6 W 20 27 1016.5 - 0.0 - - - - - - -
25/12:00pm 18.5 W 22 29 1016.3 - 0.0 - - - - - - -
25/11:30am 16.6 W 25 35 1016.2 - 0.0 - - - - - - -
25/11:00am 16.9 W 22 33 1015.9 - 0.0 - - - - - - -
25/10:54am 17.1 W 20 29 1015.8 - 0.0 - - - - - - -
25/10:38am 14.4 WSW 19 29 1015.9 - 0.0 - - - - - - -
25/10:30am 15.0 W 20 29 1015.8 - 0.0 - - - - - - -
25/10:00am 15.7 W 21 30 1015.3 - 0.0 - - - - - - -
25/09:30am 15.7 W 19 29 1015.3 - 0.0 - - - - - - -
25/09:17am 15.2 W 19 29 1015.2 - 0.0 - - - - - - -
25/09:00am 14.9 W 20 25 1015.0 - 6.4 - - - - - - -
25/08:30am 14.7 W 19 27 1014.4 - 6.4 - - - - - - -
25/08:11am 14.4 W 17 27 1014.2 - 6.4 - - - - - - -
25/08:00am 13.9 W 17 23 1014.0 - 6.4 - - - - - - -
25/07:46am 13.4 W 16 26 1013.7 - 6.4 - - - - - - -
25/07:30am 12.6 W 19 28 1013.7 - 6.4 - - - - - - -
25/07:00am 12.2 W 17 25 1013.1 - 6.4 - - - - - - -
25/06:30am 11.5 W 14 21 1013.0 - 6.4 - - - - - - -
25/06:00am 11.3 W 14 19 1012.6 - 6.4 - - - - - - -
25/05:30am 11.1 W 16 21 1011.8 - 6.4 - - - - - - -
25/05:00am 10.9 WNW 13 18 1011.7 - 6.4 - - - - - - -
25/04:30am 11.0 W 15 23 1011.5 - 6.4 - - - - - - -
25/04:00am 11.1 WNW 14 19 1011.3 - 6.4 - - - - - - -
25/03:30am 11.0 WNW 11 17 1011.3 - 6.4 - - - - - - -
25/03:00am 10.7 WNW 11 15 1011.4 - 6.4 - - - - - - -
25/02:30am 10.8 WNW 10 15 1011.5 - 6.4 - - - - - - -
25/02:00am 11.1 WNW 10 14 1011.5 - 6.4 - - - - - - -
25/01:30am 10.7 WNW 9 11 1011.6 - 6.4 - - - - - - -
25/01:00am 11.5 W 12 16 1011.7 - 6.4 - - - - - - -
25/12:33am 12.8 W 15 25 1011.8 - 6.4 - - - - - - -
25/12:30am 12.7 W 13 19 1011.7 - 6.4 - - - - - - -
25/12:00am 12.6 W 9 13 1011.4 - 6.4 - - - - - - -
 
Date/Time
EDT
Temp

°C
Wind Pressure Rain
since 9am
mm
Weather Cloud Vis
km
Sea
Height
m
Swell
Dir
 
Speed
knots
Gust
knots
hPa Trend Height
m
Period
s
Dir
24/11:30pm 13.1 W 10 13 1011.5 - 6.4 - - - - - - -
24/11:00pm 13.0 W 10 13 1011.3 - 6.4 - - - - - - -
24/10:30pm 13.1 W 11 14 1011.2 - 6.4 - - - - - - -
24/10:00pm 13.4 WSW 15 19 1010.7 - 6.4 - - - - - - -
24/09:30pm 13.7 WSW 16 21 1010.5 - 6.4 - - - - - - -
24/09:12pm 13.5 WSW 17 27 1009.9 - 6.4 - - - - - - -
24/09:00pm 14.2 WSW 14 18 1009.5 - 6.2 - - - - - - -
24/08:30pm 15.1 W 12 18 1008.9 - 6.2 - - - - - - -
24/08:00pm 15.1 WSW 9 14 1008.8 - 6.2 - - - - - - -
24/07:30pm 15.3 WSW 14 20 1008.2 - 6.2 - - - - - - -
24/07:00pm 15.3 W 16 22 1007.6 - 6.2 - - - - - - -
24/06:30pm 15.8 WSW 19 25 1006.7 - 6.0 - - - - - - -
24/06:18pm 16.7 SW 15 18 1006.0 - 5.4 - - - - - - -
24/06:00pm 17.2 SW 5 8 1006.1 - 4.4 Rain - - - - - -
24/05:30pm 17.0 SSW 7 9 1005.3 - 4.0 - - - - - - -
24/05:07pm 17.4 SW 17 20 1005.3 - 3.8 - - - - - - -
24/05:00pm 18.0 ENE 5 9 1004.4 - 3.4 - - - - - - -
24/04:30pm 18.0 NE 7 13 1004.4 - 2.4 - - - - - - -
24/04:00pm 17.8 NE 9 15 1004.9 - 1.6 - - - - - - -
24/03:30pm 17.5 ENE 9 11 1005.4 - 0.8 - - - - - - -
24/03:00pm 17.6 NE 8 11 1005.3 - 0.8 Recent precip. - - - - - -
24/02:30pm 16.5 ENE 6 8 1006.4 - 0.6 - - - - - - -
24/02:00pm 16.6 ENE 5 7 1007.2 - 0.6 - - - - - - -
24/01:30pm 16.3 SSE 5 6 1008.8 - 0.6 - - - - - - -
24/01:00pm 16.2 SSE 7 9 1009.3 - 0.4 - - - - - - -
24/12:30pm 17.0 SW 6 8 1009.7 - 0.4 - - - - - - -
24/12:00pm 17.1 W 8 10 1010.4 - 0.2 Recent precip. - - - - - -
24/11:30am 17.3 WSW 5 7 1009.7 - 0.2 - - - - - - -
24/11:00am 17.3 SSW 5 7 1009.7 - 0.0 - - - - - - -
24/10:30am 17.2 S 5 7 1009.8 - 0.0 - - - - - - -
24/10:00am 17.2 ESE 1 4 1009.9 - 0.0 - - - - - - -
24/09:30am 17.0 ENE 9 11 1008.3 - 0.0 - - - - - - -
24/09:00am 16.7 ENE 8 11 1008.6 - 0.0 - - - - - - -
24/08:30am 16.2 ENE 9 14 1008.6 - 0.0 - - - - - - -
24/08:00am 15.5 ENE 7 11 1009.1 - 0.0 - - - - - - -
24/07:30am 15.1 NE 6 7 1009.6 - 0.0 - - - - - - -
24/07:00am 14.5 NNE 9 12 1009.6 - 0.0 - - - - - - -
24/06:30am 14.4 NNE 9 11 1009.6 - 0.0 - - - - - - -
24/06:00am 12.4 NE 5 7 1009.4 - 0.0 - - - - - - -
24/05:30am 11.9 NE 5 5 1010.3 - 0.0 - - - - - - -
24/05:00am 11.6 NE 5 6 1010.3 - 0.0 - - - - - - -
24/04:30am 11.8 ENE 4 5 1010.1 - 0.0 - - - - - - -
24/04:00am 11.8 NE 7 8 1010.5 - 0.0 - - - - - - -
24/03:30am 11.7 NE 3 5 1011.0 - 0.0 - - - - - - -
24/03:00am 12.3 ENE 5 6 1011.2 - 0.0 - - - - - - -
24/02:30am 12.5 ENE 6 8 1012.1 - 0.0 - - - - - - -
24/02:00am 12.2 NE 5 7 1012.7 - 0.0 - - - - - - -
24/01:30am 12.2 NNE 6 7 1013.2 - 0.0 - - - - - - -
24/01:00am 12.0 NNE 4 5 1013.4 - 0.0 - - - - - - -
24/12:30am 11.7 NE 3 5 1013.6 - 0.0 - - - - - - -
24/12:00am 12.4 E 4 4 1014.2 - 0.0 - - - - - - -
 
Date/Time
EDT
Temp

°C
Wind Pressure Rain
since 9am
mm
Weather Cloud Vis
km
Sea
Height
m
Swell
Dir
 
Speed
knots
Gust
knots
hPa Trend Height
m
Period
s
Dir
23/11:30pm 13.3 ENE 5 6 1014.3 - 0.0 - - - - - - -
23/11:00pm 13.2 E 5 6 1014.6 - 0.0 - - - - - - -
23/10:30pm 13.3 ENE 6 7 1014.8 - 0.0 - - - - - - -
23/10:00pm 13.6 ENE 5 7 1015.0 - 0.0 - - - - - - -
23/09:30pm 14.1 NE 6 7 1014.8 - 0.0 - - - - - - -
23/09:00pm 14.0 ENE 5 6 1014.7 - 0.0 - - - - - - -
23/08:30pm 14.9 E 4 5 1014.4 - 0.0 - - - - - - -
23/08:00pm 15.8 ENE 5 7 1014.2 - 0.0 - - - - - - -
23/07:30pm 16.5 E 5 6 1013.9 - 0.0 - - - - - - -
23/07:00pm 17.0 ESE 5 7 1013.9 - 0.0 - - - - - - -
23/06:30pm 17.1 SE 7 9 1013.5 - 0.0 - - - - - - -
23/06:00pm 17.6 SSE 8 10 1013.4 - 0.0 - - - - - - -

Other Formats:

Comma delimited format used in spreadsheet applications
http://www.bom.gov.au/fwo/IDV60701/IDV60701.95890.axf

JavaScript Object Notation format (JSON) in row-major order
http://www.bom.gov.au/fwo/IDV60701/IDV60701.95890.json